sensor_id;sensor_type;location;lat;lon;timestamp;P1;durP1;ratioP1;P2;durP2;ratioP2
17361;SDS011;8798;51.938;4.348;2024-03-02T00:01:11;2.03;;;0.60;;
17361;SDS011;8798;51.938;4.348;2024-03-02T00:03:40;0.50;;;0.30;;
17361;SDS011;8798;51.938;4.348;2024-03-02T00:06:10;2.97;;;0.50;;
17361;SDS011;8798;51.938;4.348;2024-03-02T00:08:38;1.20;;;0.40;;
17361;SDS011;8798;51.938;4.348;2024-03-02T00:11:06;3.70;;;0.67;;
17361;SDS011;8798;51.938;4.348;2024-03-02T00:13:37;0.53;;;0.50;;
17361;SDS011;8798;51.938;4.348;2024-03-02T00:16:07;0.70;;;0.60;;
17361;SDS011;8798;51.938;4.348;2024-03-02T00:18:35;0.53;;;0.50;;
17361;SDS011;8798;51.938;4.348;2024-03-02T00:21:05;0.53;;;0.50;;
17361;SDS011;8798;51.938;4.348;2024-03-02T00:23:36;0.77;;;0.50;;
17361;SDS011;8798;51.938;4.348;2024-03-02T00:26:05;0.90;;;0.50;;
17361;SDS011;8798;51.938;4.348;2024-03-02T00:28:35;1.20;;;0.47;;
17361;SDS011;8798;51.938;4.348;2024-03-02T00:31:05;1.93;;;0.40;;
17361;SDS011;8798;51.938;4.348;2024-03-02T00:33:36;0.50;;;0.37;;
17361;SDS011;8798;51.938;4.348;2024-03-02T00:36:07;0.80;;;0.40;;
17361;SDS011;8798;51.938;4.348;2024-03-02T00:38:40;0.60;;;0.40;;
17361;SDS011;8798;51.938;4.348;2024-03-02T00:41:15;0.47;;;0.40;;
17361;SDS011;8798;51.938;4.348;2024-03-02T00:43:51;0.40;;;0.30;;
17361;SDS011;8798;51.938;4.348;2024-03-02T00:46:33;0.60;;;0.40;;
17361;SDS011;8798;51.938;4.348;2024-03-02T00:49:02;1.80;;;0.47;;
17361;SDS011;8798;51.938;4.348;2024-03-02T00:51:32;0.87;;;0.50;;
17361;SDS011;8798;51.938;4.348;2024-03-02T00:54:03;1.70;;;0.57;;
17361;SDS011;8798;51.938;4.348;2024-03-02T00:56:32;0.40;;;0.40;;
17361;SDS011;8798;51.938;4.348;2024-03-02T00:59:02;0.40;;;0.40;;
17361;SDS011;8798;51.938;4.348;2024-03-02T01:01:31;0.70;;;0.50;;
17361;SDS011;8798;51.938;4.348;2024-03-02T01:04:00;0.30;;;0.30;;
17361;SDS011;8798;51.938;4.348;2024-03-02T01:06:28;1.10;;;0.40;;
17361;SDS011;8798;51.938;4.348;2024-03-02T01:08:56;0.97;;;0.40;;
17361;SDS011;8798;51.938;4.348;2024-03-02T01:11:29;0.50;;;0.30;;
17361;SDS011;8798;51.938;4.348;2024-03-02T01:13:58;0.40;;;0.27;;
17361;SDS011;8798;51.938;4.348;2024-03-02T01:16:26;0.53;;;0.30;;
17361;SDS011;8798;51.938;4.348;2024-03-02T01:18:55;0.40;;;0.40;;
17361;SDS011;8798;51.938;4.348;2024-03-02T01:21:23;1.27;;;0.40;;
17361;SDS011;8798;51.938;4.348;2024-03-02T01:23:52;0.30;;;0.30;;
17361;SDS011;8798;51.938;4.348;2024-03-02T01:26:20;1.63;;;0.50;;
17361;SDS011;8798;51.938;4.348;2024-03-02T01:28:48;0.30;;;0.30;;
17361;SDS011;8798;51.938;4.348;2024-03-02T01:31:16;0.67;;;0.50;;
17361;SDS011;8798;51.938;4.348;2024-03-02T01:33:44;0.43;;;0.30;;
17361;SDS011;8798;51.938;4.348;2024-03-02T01:36:14;1.80;;;0.40;;
17361;SDS011;8798;51.938;4.348;2024-03-02T01:38:50;0.73;;;0.40;;
17361;SDS011;8798;51.938;4.348;2024-03-02T01:41:18;0.60;;;0.30;;
17361;SDS011;8798;51.938;4.348;2024-03-02T01:43:46;1.97;;;0.37;;
17361;SDS011;8798;51.938;4.348;2024-03-02T01:46:14;0.40;;;0.40;;
17361;SDS011;8798;51.938;4.348;2024-03-02T01:48:42;1.03;;;0.50;;
17361;SDS011;8798;51.938;4.348;2024-03-02T01:51:10;0.63;;;0.40;;
17361;SDS011;8798;51.938;4.348;2024-03-02T01:53:47;2.33;;;0.40;;
17361;SDS011;8798;51.938;4.348;2024-03-02T01:56:15;0.67;;;0.20;;
17361;SDS011;8798;51.938;4.348;2024-03-02T01:58:43;0.80;;;0.43;;
17361;SDS011;8798;51.938;4.348;2024-03-02T02:01:11;1.03;;;0.50;;
17361;SDS011;8798;51.938;4.348;2024-03-02T02:03:40;0.60;;;0.60;;
17361;SDS011;8798;51.938;4.348;2024-03-02T02:06:08;1.90;;;0.60;;
17361;SDS011;8798;51.938;4.348;2024-03-02T02:08:36;0.60;;;0.53;;
17361;SDS011;8798;51.938;4.348;2024-03-02T02:11:13;1.17;;;0.70;;
17361;SDS011;8798;51.938;4.348;2024-03-02T02:13:42;1.03;;;0.80;;
17361;SDS011;8798;51.938;4.348;2024-03-02T02:16:11;1.90;;;1.00;;
17361;SDS011;8798;51.938;4.348;2024-03-02T02:18:39;2.83;;;1.20;;
17361;SDS011;8798;51.938;4.348;2024-03-02T02:21:07;1.30;;;1.20;;
17361;SDS011;8798;51.938;4.348;2024-03-02T02:23:36;1.33;;;0.97;;
17361;SDS011;8798;51.938;4.348;2024-03-02T02:26:04;1.87;;;1.00;;
17361;SDS011;8798;51.938;4.348;2024-03-02T02:28:34;0.90;;;0.83;;
17361;SDS011;8798;51.938;4.348;2024-03-02T02:31:02;1.60;;;0.90;;
17361;SDS011;8798;51.938;4.348;2024-03-02T02:33:30;1.67;;;0.87;;
17361;SDS011;8798;51.938;4.348;2024-03-02T02:35:58;2.17;;;1.03;;
17361;SDS011;8798;51.938;4.348;2024-03-02T02:38:26;1.73;;;1.00;;
17361;SDS011;8798;51.938;4.348;2024-03-02T02:40:56;0.87;;;0.70;;
17361;SDS011;8798;51.938;4.348;2024-03-02T02:43:24;1.30;;;0.80;;
17361;SDS011;8798;51.938;4.348;2024-03-02T02:45:52;1.53;;;0.70;;
17361;SDS011;8798;51.938;4.348;2024-03-02T02:48:28;2.17;;;1.10;;
17361;SDS011;8798;51.938;4.348;2024-03-02T02:50:56;1.27;;;0.80;;
17361;SDS011;8798;51.938;4.348;2024-03-02T02:53:24;2.13;;;0.90;;
17361;SDS011;8798;51.938;4.348;2024-03-02T02:55:52;2.63;;;0.90;;
17361;SDS011;8798;51.938;4.348;2024-03-02T02:58:21;4.20;;;1.20;;
17361;SDS011;8798;51.938;4.348;2024-03-02T03:00:49;1.13;;;0.60;;
17361;SDS011;8798;51.938;4.348;2024-03-02T03:03:17;1.90;;;0.97;;
17361;SDS011;8798;51.938;4.348;2024-03-02T03:05:53;2.53;;;0.80;;
17361;SDS011;8798;51.938;4.348;2024-03-02T03:08:21;1.33;;;0.90;;
17361;SDS011;8798;51.938;4.348;2024-03-02T03:10:50;1.50;;;1.00;;
17361;SDS011;8798;51.938;4.348;2024-03-02T03:13:18;2.43;;;1.00;;
17361;SDS011;8798;51.938;4.348;2024-03-02T03:15:48;1.80;;;0.77;;
17361;SDS011;8798;51.938;4.348;2024-03-02T03:18:16;1.97;;;1.03;;
17361;SDS011;8798;51.938;4.348;2024-03-02T03:20:46;1.60;;;0.80;;
17361;SDS011;8798;51.938;4.348;2024-03-02T03:23:16;3.20;;;1.20;;
17361;SDS011;8798;51.938;4.348;2024-03-02T03:25:44;1.80;;;1.00;;
17361;SDS011;8798;51.938;4.348;2024-03-02T03:28:12;1.73;;;0.90;;
17361;SDS011;8798;51.938;4.348;2024-03-02T03:30:40;2.47;;;1.10;;
17361;SDS011;8798;51.938;4.348;2024-03-02T03:33:10;2.73;;;0.90;;
17361;SDS011;8798;51.938;4.348;2024-03-02T03:35:37;2.13;;;1.00;;
17361;SDS011;8798;51.938;4.348;2024-03-02T03:38:05;2.37;;;1.07;;
17361;SDS011;8798;51.938;4.348;2024-03-02T03:40:34;2.80;;;1.03;;
17361;SDS011;8798;51.938;4.348;2024-03-02T03:43:02;3.13;;;1.20;;
17361;SDS011;8798;51.938;4.348;2024-03-02T03:45:30;2.90;;;1.30;;
17361;SDS011;8798;51.938;4.348;2024-03-02T03:47:58;1.60;;;0.87;;
17361;SDS011;8798;51.938;4.348;2024-03-02T03:50:29;1.00;;;0.90;;
17361;SDS011;8798;51.938;4.348;2024-03-02T03:52:57;4.87;;;1.20;;
17361;SDS011;8798;51.938;4.348;2024-03-02T03:55:25;1.83;;;1.07;;
17361;SDS011;8798;51.938;4.348;2024-03-02T03:57:53;4.00;;;1.17;;
17361;SDS011;8798;51.938;4.348;2024-03-02T04:00:21;1.47;;;0.90;;
17361;SDS011;8798;51.938;4.348;2024-03-02T04:02:49;2.70;;;0.90;;
17361;SDS011;8798;51.938;4.348;2024-03-02T04:05:17;1.10;;;0.93;;
17361;SDS011;8798;51.938;4.348;2024-03-02T04:07:46;2.90;;;0.90;;
17361;SDS011;8798;51.938;4.348;2024-03-02T04:10:14;3.97;;;1.27;;
17361;SDS011;8798;51.938;4.348;2024-03-02T04:12:43;2.90;;;0.90;;
17361;SDS011;8798;51.938;4.348;2024-03-02T04:15:11;2.10;;;1.10;;
17361;SDS011;8798;51.938;4.348;2024-03-02T04:17:39;1.67;;;1.10;;
17361;SDS011;8798;51.938;4.348;2024-03-02T04:20:07;1.63;;;1.10;;
17361;SDS011;8798;51.938;4.348;2024-03-02T04:22:39;4.10;;;0.90;;
17361;SDS011;8798;51.938;4.348;2024-03-02T04:25:08;3.33;;;0.90;;
17361;SDS011;8798;51.938;4.348;2024-03-02T04:27:37;2.00;;;1.33;;
17361;SDS011;8798;51.938;4.348;2024-03-02T04:30:05;3.43;;;1.00;;
17361;SDS011;8798;51.938;4.348;2024-03-02T04:32:34;1.10;;;0.83;;
17361;SDS011;8798;51.938;4.348;2024-03-02T04:35:03;2.13;;;0.90;;
17361;SDS011;8798;51.938;4.348;2024-03-02T04:37:31;1.57;;;1.10;;
17361;SDS011;8798;51.938;4.348;2024-03-02T04:40:00;1.70;;;0.87;;
17361;SDS011;8798;51.938;4.348;2024-03-02T04:42:30;1.47;;;0.93;;
17361;SDS011;8798;51.938;4.348;2024-03-02T04:44:58;3.10;;;1.20;;
17361;SDS011;8798;51.938;4.348;2024-03-02T04:47:26;4.33;;;0.97;;
17361;SDS011;8798;51.938;4.348;2024-03-02T04:49:54;1.33;;;0.83;;
17361;SDS011;8798;51.938;4.348;2024-03-02T04:52:23;2.37;;;1.23;;
17361;SDS011;8798;51.938;4.348;2024-03-02T04:54:51;3.87;;;0.90;;
17361;SDS011;8798;51.938;4.348;2024-03-02T04:57:47;1.20;;;0.80;;
17361;SDS011;8798;51.938;4.348;2024-03-02T05:00:17;2.70;;;0.87;;
17361;SDS011;8798;51.938;4.348;2024-03-02T05:02:45;1.17;;;0.90;;
17361;SDS011;8798;51.938;4.348;2024-03-02T05:05:13;2.20;;;0.83;;
17361;SDS011;8798;51.938;4.348;2024-03-02T05:07:49;1.00;;;0.80;;
17361;SDS011;8798;51.938;4.348;2024-03-02T05:10:17;1.10;;;0.73;;
17361;SDS011;8798;51.938;4.348;2024-03-02T05:12:46;3.10;;;0.97;;
17361;SDS011;8798;51.938;4.348;2024-03-02T05:15:23;0.73;;;0.60;;
17361;SDS011;8798;51.938;4.348;2024-03-02T05:17:52;1.47;;;0.73;;
17361;SDS011;8798;51.938;4.348;2024-03-02T05:20:20;0.77;;;0.70;;
17361;SDS011;8798;51.938;4.348;2024-03-02T05:22:48;2.00;;;0.70;;
17361;SDS011;8798;51.938;4.348;2024-03-02T05:25:16;1.13;;;0.70;;
17361;SDS011;8798;51.938;4.348;2024-03-02T05:27:45;1.07;;;0.60;;
17361;SDS011;8798;51.938;4.348;2024-03-02T05:30:15;1.10;;;0.60;;
17361;SDS011;8798;51.938;4.348;2024-03-02T05:32:43;1.30;;;0.60;;
17361;SDS011;8798;51.938;4.348;2024-03-02T05:35:11;0.77;;;0.50;;
17361;SDS011;8798;51.938;4.348;2024-03-02T05:37:39;1.13;;;0.50;;
17361;SDS011;8798;51.938;4.348;2024-03-02T05:40:11;1.20;;;0.60;;
17361;SDS011;8798;51.938;4.348;2024-03-02T05:42:40;0.70;;;0.50;;
17361;SDS011;8798;51.938;4.348;2024-03-02T05:45:08;0.83;;;0.57;;
17361;SDS011;8798;51.938;4.348;2024-03-02T05:47:38;0.80;;;0.60;;
17361;SDS011;8798;51.938;4.348;2024-03-02T05:50:07;3.50;;;0.70;;
17361;SDS011;8798;51.938;4.348;2024-03-02T05:52:35;2.30;;;0.60;;
17361;SDS011;8798;51.938;4.348;2024-03-02T05:55:04;2.63;;;0.60;;
17361;SDS011;8798;51.938;4.348;2024-03-02T05:57:38;1.23;;;0.60;;
17361;SDS011;8798;51.938;4.348;2024-03-02T06:00:22;2.20;;;0.40;;
17361;SDS011;8798;51.938;4.348;2024-03-02T06:02:51;1.13;;;0.53;;
17361;SDS011;8798;51.938;4.348;2024-03-02T06:05:19;3.27;;;0.73;;
17361;SDS011;8798;51.938;4.348;2024-03-02T06:07:47;1.87;;;0.67;;
17361;SDS011;8798;51.938;4.348;2024-03-02T06:10:15;0.97;;;0.60;;
17361;SDS011;8798;51.938;4.348;2024-03-02T06:12:44;0.83;;;0.50;;
17361;SDS011;8798;51.938;4.348;2024-03-02T06:15:12;1.10;;;0.67;;
17361;SDS011;8798;51.938;4.348;2024-03-02T06:17:40;1.30;;;0.40;;
17361;SDS011;8798;51.938;4.348;2024-03-02T06:20:12;1.83;;;0.63;;
17361;SDS011;8798;51.938;4.348;2024-03-02T06:22:43;2.80;;;0.60;;
17361;SDS011;8798;51.938;4.348;2024-03-02T06:25:11;0.90;;;0.57;;
17361;SDS011;8798;51.938;4.348;2024-03-02T06:27:43;2.70;;;0.90;;
17361;SDS011;8798;51.938;4.348;2024-03-02T06:30:13;1.90;;;0.87;;
17361;SDS011;8798;51.938;4.348;2024-03-02T06:32:42;1.93;;;0.60;;
17361;SDS011;8798;51.938;4.348;2024-03-02T06:35:14;1.97;;;0.67;;
17361;SDS011;8798;51.938;4.348;2024-03-02T06:37:42;3.03;;;0.70;;
17361;SDS011;8798;51.938;4.348;2024-03-02T06:40:10;2.60;;;0.67;;
17361;SDS011;8798;51.938;4.348;2024-03-02T06:42:38;1.60;;;0.70;;
17361;SDS011;8798;51.938;4.348;2024-03-02T06:45:07;1.57;;;0.60;;
17361;SDS011;8798;51.938;4.348;2024-03-02T06:47:35;3.13;;;0.70;;
17361;SDS011;8798;51.938;4.348;2024-03-02T06:50:03;0.90;;;0.50;;
17361;SDS011;8798;51.938;4.348;2024-03-02T06:52:35;2.00;;;0.50;;
17361;SDS011;8798;51.938;4.348;2024-03-02T06:55:03;1.53;;;0.50;;
17361;SDS011;8798;51.938;4.348;2024-03-02T06:57:32;0.77;;;0.60;;
17361;SDS011;8798;51.938;4.348;2024-03-02T07:00:00;2.20;;;0.70;;
17361;SDS011;8798;51.938;4.348;2024-03-02T07:02:31;2.20;;;0.70;;
17361;SDS011;8798;51.938;4.348;2024-03-02T07:04:59;1.33;;;0.50;;
17361;SDS011;8798;51.938;4.348;2024-03-02T07:07:27;1.77;;;0.40;;
17361;SDS011;8798;51.938;4.348;2024-03-02T07:09:57;3.03;;;0.70;;
17361;SDS011;8798;51.938;4.348;2024-03-02T07:12:25;1.70;;;0.60;;
17361;SDS011;8798;51.938;4.348;2024-03-02T07:14:54;2.47;;;0.70;;
17361;SDS011;8798;51.938;4.348;2024-03-02T07:17:37;1.83;;;0.50;;
17361;SDS011;8798;51.938;4.348;2024-03-02T07:20:06;1.43;;;0.50;;
17361;SDS011;8798;51.938;4.348;2024-03-02T07:22:34;2.23;;;0.67;;
17361;SDS011;8798;51.938;4.348;2024-03-02T07:25:09;2.77;;;0.67;;
17361;SDS011;8798;51.938;4.348;2024-03-02T07:27:40;1.33;;;0.60;;
17361;SDS011;8798;51.938;4.348;2024-03-02T07:30:13;2.87;;;0.80;;
17361;SDS011;8798;51.938;4.348;2024-03-02T07:32:42;0.90;;;0.60;;
17361;SDS011;8798;51.938;4.348;2024-03-02T07:35:12;2.50;;;0.83;;
17361;SDS011;8798;51.938;4.348;2024-03-02T07:37:41;1.17;;;0.60;;
17361;SDS011;8798;51.938;4.348;2024-03-02T07:40:18;3.70;;;0.63;;
17361;SDS011;8798;51.938;4.348;2024-03-02T07:42:46;4.00;;;0.70;;
17361;SDS011;8798;51.938;4.348;2024-03-02T07:45:17;1.30;;;0.70;;
17361;SDS011;8798;51.938;4.348;2024-03-02T07:47:45;1.07;;;0.60;;
17361;SDS011;8798;51.938;4.348;2024-03-02T07:50:14;0.70;;;0.50;;
17361;SDS011;8798;51.938;4.348;2024-03-02T07:52:42;2.87;;;0.87;;
17361;SDS011;8798;51.938;4.348;2024-03-02T07:55:16;1.80;;;0.60;;
17361;SDS011;8798;51.938;4.348;2024-03-02T07:57:45;2.13;;;0.60;;
17361;SDS011;8798;51.938;4.348;2024-03-02T08:00:14;1.77;;;0.60;;
17361;SDS011;8798;51.938;4.348;2024-03-02T08:02:42;2.30;;;0.70;;
17361;SDS011;8798;51.938;4.348;2024-03-02T08:05:10;3.43;;;0.77;;
17361;SDS011;8798;51.938;4.348;2024-03-02T08:07:38;1.83;;;0.60;;
17361;SDS011;8798;51.938;4.348;2024-03-02T08:10:07;1.97;;;0.70;;
17361;SDS011;8798;51.938;4.348;2024-03-02T08:12:40;1.23;;;0.67;;
17361;SDS011;8798;51.938;4.348;2024-03-02T08:15:08;1.53;;;0.77;;
17361;SDS011;8798;51.938;4.348;2024-03-02T08:17:36;1.33;;;0.60;;
17361;SDS011;8798;51.938;4.348;2024-03-02T08:20:05;2.27;;;0.60;;
17361;SDS011;8798;51.938;4.348;2024-03-02T08:22:34;1.50;;;0.70;;
17361;SDS011;8798;51.938;4.348;2024-03-02T08:25:03;2.30;;;0.83;;
17361;SDS011;8798;51.938;4.348;2024-03-02T08:27:32;4.40;;;0.97;;
17361;SDS011;8798;51.938;4.348;2024-03-02T08:30:02;1.10;;;0.57;;
17361;SDS011;8798;51.938;4.348;2024-03-02T08:32:33;2.43;;;0.63;;
17361;SDS011;8798;51.938;4.348;2024-03-02T08:35:02;4.97;;;0.93;;
17361;SDS011;8798;51.938;4.348;2024-03-02T08:37:30;2.87;;;0.80;;
17361;SDS011;8798;51.938;4.348;2024-03-02T08:39:58;2.57;;;0.97;;
17361;SDS011;8798;51.938;4.348;2024-03-02T08:42:27;2.63;;;0.90;;
17361;SDS011;8798;51.938;4.348;2024-03-02T08:44:56;6.20;;;1.07;;
17361;SDS011;8798;51.938;4.348;2024-03-02T08:47:25;8.77;;;1.30;;
17361;SDS011;8798;51.938;4.348;2024-03-02T08:49:54;2.30;;;0.70;;
17361;SDS011;8798;51.938;4.348;2024-03-02T08:52:26;2.90;;;0.87;;
17361;SDS011;8798;51.938;4.348;2024-03-02T08:54:54;1.40;;;0.70;;
17361;SDS011;8798;51.938;4.348;2024-03-02T08:57:23;4.10;;;0.90;;
17361;SDS011;8798;51.938;4.348;2024-03-02T08:59:51;5.30;;;1.00;;
17361;SDS011;8798;51.938;4.348;2024-03-02T09:02:19;2.00;;;0.90;;
17361;SDS011;8798;51.938;4.348;2024-03-02T09:04:49;5.03;;;1.07;;
17361;SDS011;8798;51.938;4.348;2024-03-02T09:07:17;3.87;;;1.00;;
17361;SDS011;8798;51.938;4.348;2024-03-02T09:09:46;3.60;;;0.80;;
17361;SDS011;8798;51.938;4.348;2024-03-02T09:12:14;6.40;;;1.10;;
17361;SDS011;8798;51.938;4.348;2024-03-02T09:14:42;3.07;;;0.90;;
17361;SDS011;8798;51.938;4.348;2024-03-02T09:17:10;2.23;;;0.70;;
17361;SDS011;8798;51.938;4.348;2024-03-02T09:19:39;1.90;;;0.63;;
17361;SDS011;8798;51.938;4.348;2024-03-02T09:22:08;4.13;;;0.97;;
17361;SDS011;8798;51.938;4.348;2024-03-02T09:24:36;3.33;;;0.70;;
17361;SDS011;8798;51.938;4.348;2024-03-02T09:27:05;1.87;;;0.70;;
17361;SDS011;8798;51.938;4.348;2024-03-02T09:29:33;3.67;;;0.97;;
17361;SDS011;8798;51.938;4.348;2024-03-02T09:32:01;3.03;;;0.70;;
17361;SDS011;8798;51.938;4.348;2024-03-02T09:34:29;7.07;;;1.03;;
17361;SDS011;8798;51.938;4.348;2024-03-02T09:36:58;5.93;;;1.00;;
17361;SDS011;8798;51.938;4.348;2024-03-02T09:39:27;3.43;;;0.70;;
17361;SDS011;8798;51.938;4.348;2024-03-02T09:41:56;3.70;;;0.90;;
17361;SDS011;8798;51.938;4.348;2024-03-02T09:44:25;3.67;;;1.10;;
17361;SDS011;8798;51.938;4.348;2024-03-02T09:46:53;3.20;;;0.77;;
17361;SDS011;8798;51.938;4.348;2024-03-02T09:49:22;3.73;;;0.90;;
17361;SDS011;8798;51.938;4.348;2024-03-02T09:51:50;2.40;;;0.80;;
17361;SDS011;8798;51.938;4.348;2024-03-02T09:54:20;4.53;;;0.93;;
17361;SDS011;8798;51.938;4.348;2024-03-02T09:56:50;2.70;;;0.80;;
17361;SDS011;8798;51.938;4.348;2024-03-02T09:59:18;4.53;;;1.30;;
17361;SDS011;8798;51.938;4.348;2024-03-02T10:01:57;1.87;;;0.70;;
17361;SDS011;8798;51.938;4.348;2024-03-02T10:04:26;6.20;;;1.20;;
17361;SDS011;8798;51.938;4.348;2024-03-02T10:07:09;5.33;;;1.10;;
17361;SDS011;8798;51.938;4.348;2024-03-02T10:09:41;1.97;;;0.90;;
17361;SDS011;8798;51.938;4.348;2024-03-02T10:12:12;2.77;;;1.00;;
17361;SDS011;8798;51.938;4.348;2024-03-02T10:14:41;4.63;;;1.17;;
17361;SDS011;8798;51.938;4.348;2024-03-02T10:17:10;3.03;;;0.83;;
17361;SDS011;8798;51.938;4.348;2024-03-02T10:19:39;2.57;;;0.80;;
17361;SDS011;8798;51.938;4.348;2024-03-02T10:22:07;4.27;;;0.97;;
17361;SDS011;8798;51.938;4.348;2024-03-02T10:24:40;1.47;;;0.73;;
17361;SDS011;8798;51.938;4.348;2024-03-02T10:27:17;6.90;;;0.93;;
17361;SDS011;8798;51.938;4.348;2024-03-02T10:29:47;3.40;;;1.10;;
17361;SDS011;8798;51.938;4.348;2024-03-02T10:32:15;8.40;;;1.10;;
17361;SDS011;8798;51.938;4.348;2024-03-02T10:34:45;3.00;;;0.80;;
17361;SDS011;8798;51.938;4.348;2024-03-02T10:37:14;5.07;;;0.80;;
17361;SDS011;8798;51.938;4.348;2024-03-02T10:39:45;4.80;;;0.77;;
17361;SDS011;8798;51.938;4.348;2024-03-02T10:42:16;3.47;;;0.70;;
17361;SDS011;8798;51.938;4.348;2024-03-02T10:44:46;1.57;;;0.70;;
17361;SDS011;8798;51.938;4.348;2024-03-02T10:47:16;4.03;;;0.67;;
17361;SDS011;8798;51.938;4.348;2024-03-02T10:49:54;3.43;;;0.77;;
17361;SDS011;8798;51.938;4.348;2024-03-02T10:52:26;3.20;;;0.70;;
17361;SDS011;8798;51.938;4.348;2024-03-02T10:54:54;3.50;;;0.80;;
17361;SDS011;8798;51.938;4.348;2024-03-02T10:57:23;4.60;;;0.87;;
17361;SDS011;8798;51.938;4.348;2024-03-02T11:00:03;2.83;;;0.83;;
17361;SDS011;8798;51.938;4.348;2024-03-02T11:02:33;5.03;;;0.87;;
17361;SDS011;8798;51.938;4.348;2024-03-02T11:05:06;3.93;;;1.00;;
17361;SDS011;8798;51.938;4.348;2024-03-02T11:07:37;3.60;;;1.00;;
17361;SDS011;8798;51.938;4.348;2024-03-02T11:10:07;1.80;;;0.70;;
17361;SDS011;8798;51.938;4.348;2024-03-02T11:12:38;2.80;;;0.70;;
17361;SDS011;8798;51.938;4.348;2024-03-02T11:15:11;4.10;;;0.93;;
17361;SDS011;8798;51.938;4.348;2024-03-02T11:17:45;5.37;;;0.90;;
17361;SDS011;8798;51.938;4.348;2024-03-02T11:20:14;2.43;;;1.00;;
17361;SDS011;8798;51.938;4.348;2024-03-02T11:22:47;5.17;;;1.10;;
17361;SDS011;8798;51.938;4.348;2024-03-02T11:25:25;3.17;;;0.90;;
17361;SDS011;8798;51.938;4.348;2024-03-02T11:28:02;4.83;;;1.20;;
17361;SDS011;8798;51.938;4.348;2024-03-02T11:30:50;4.83;;;1.03;;
17361;SDS011;8798;51.938;4.348;2024-03-02T11:33:26;6.80;;;1.17;;
17361;SDS011;8798;51.938;4.348;2024-03-02T11:35:59;3.70;;;1.00;;
17361;SDS011;8798;51.938;4.348;2024-03-02T11:38:29;2.50;;;0.87;;
17361;SDS011;8798;51.938;4.348;2024-03-02T11:40:59;1.70;;;0.87;;
17361;SDS011;8798;51.938;4.348;2024-03-02T11:43:30;3.33;;;0.80;;
17361;SDS011;8798;51.938;4.348;2024-03-02T11:46:00;2.13;;;1.10;;
17361;SDS011;8798;51.938;4.348;2024-03-02T11:48:31;2.07;;;0.90;;
17361;SDS011;8798;51.938;4.348;2024-03-02T11:51:00;2.63;;;1.00;;
17361;SDS011;8798;51.938;4.348;2024-03-02T11:53:28;1.87;;;0.70;;
17361;SDS011;8798;51.938;4.348;2024-03-02T11:56:01;3.63;;;0.93;;
17361;SDS011;8798;51.938;4.348;2024-03-02T11:58:33;5.30;;;0.90;;
17361;SDS011;8798;51.938;4.348;2024-03-02T12:01:04;4.17;;;0.70;;
17361;SDS011;8798;51.938;4.348;2024-03-02T12:03:32;5.57;;;0.80;;
17361;SDS011;8798;51.938;4.348;2024-03-02T12:06:02;4.43;;;0.70;;
17361;SDS011;8798;51.938;4.348;2024-03-02T12:08:30;5.10;;;0.87;;
17361;SDS011;8798;51.938;4.348;2024-03-02T12:10:59;2.10;;;1.00;;
17361;SDS011;8798;51.938;4.348;2024-03-02T12:13:30;4.80;;;0.90;;
17361;SDS011;8798;51.938;4.348;2024-03-02T12:16:01;4.90;;;0.70;;
17361;SDS011;8798;51.938;4.348;2024-03-02T12:18:29;3.27;;;1.20;;
17361;SDS011;8798;51.938;4.348;2024-03-02T12:20:57;4.33;;;0.83;;
17361;SDS011;8798;51.938;4.348;2024-03-02T12:23:25;3.13;;;0.90;;
17361;SDS011;8798;51.938;4.348;2024-03-02T12:25:54;6.27;;;1.10;;
17361;SDS011;8798;51.938;4.348;2024-03-02T12:28:22;5.00;;;1.03;;
17361;SDS011;8798;51.938;4.348;2024-03-02T12:30:50;4.50;;;1.07;;
17361;SDS011;8798;51.938;4.348;2024-03-02T12:33:20;2.23;;;0.70;;
17361;SDS011;8798;51.938;4.348;2024-03-02T12:35:48;2.17;;;0.93;;
17361;SDS011;8798;51.938;4.348;2024-03-02T12:38:17;2.03;;;0.80;;
17361;SDS011;8798;51.938;4.348;2024-03-02T12:40:47;3.97;;;1.00;;
17361;SDS011;8798;51.938;4.348;2024-03-02T12:43:15;1.90;;;0.83;;
17361;SDS011;8798;51.938;4.348;2024-03-02T12:45:43;3.10;;;0.90;;
17361;SDS011;8798;51.938;4.348;2024-03-02T12:48:12;3.00;;;1.00;;
17361;SDS011;8798;51.938;4.348;2024-03-02T12:50:42;1.73;;;0.87;;
17361;SDS011;8798;51.938;4.348;2024-03-02T12:53:14;4.80;;;1.00;;
17361;SDS011;8798;51.938;4.348;2024-03-02T12:55:43;3.47;;;0.80;;
17361;SDS011;8798;51.938;4.348;2024-03-02T12:58:16;7.07;;;1.27;;
17361;SDS011;8798;51.938;4.348;2024-03-02T13:00:45;7.57;;;0.93;;
17361;SDS011;8798;51.938;4.348;2024-03-02T13:03:13;3.47;;;0.70;;
17361;SDS011;8798;51.938;4.348;2024-03-02T13:05:47;1.57;;;0.70;;
17361;SDS011;8798;51.938;4.348;2024-03-02T13:08:16;2.90;;;1.00;;
17361;SDS011;8798;51.938;4.348;2024-03-02T13:10:44;4.23;;;0.90;;
17361;SDS011;8798;51.938;4.348;2024-03-02T13:13:12;4.27;;;0.83;;
17361;SDS011;8798;51.938;4.348;2024-03-02T13:15:41;2.93;;;1.33;;
17361;SDS011;8798;51.938;4.348;2024-03-02T13:18:10;2.60;;;1.00;;
17361;SDS011;8798;51.938;4.348;2024-03-02T13:20:39;5.03;;;1.03;;
17361;SDS011;8798;51.938;4.348;2024-03-02T13:23:09;4.57;;;1.03;;
17361;SDS011;8798;51.938;4.348;2024-03-02T13:25:37;4.50;;;0.87;;
17361;SDS011;8798;51.938;4.348;2024-03-02T13:28:05;3.53;;;0.70;;
17361;SDS011;8798;51.938;4.348;2024-03-02T13:30:34;3.63;;;0.97;;
17361;SDS011;8798;51.938;4.348;2024-03-02T13:33:02;2.27;;;0.80;;
17361;SDS011;8798;51.938;4.348;2024-03-02T13:35:30;3.83;;;0.90;;
17361;SDS011;8798;51.938;4.348;2024-03-02T13:37:58;3.43;;;0.90;;
17361;SDS011;8798;51.938;4.348;2024-03-02T13:40:28;3.10;;;0.90;;
17361;SDS011;8798;51.938;4.348;2024-03-02T13:43:01;2.40;;;0.70;;
17361;SDS011;8798;51.938;4.348;2024-03-02T13:45:30;3.47;;;0.83;;
17361;SDS011;8798;51.938;4.348;2024-03-02T13:48:00;2.97;;;0.80;;
17361;SDS011;8798;51.938;4.348;2024-03-02T13:50:30;3.87;;;1.00;;
17361;SDS011;8798;51.938;4.348;2024-03-02T13:52:58;3.83;;;1.00;;
17361;SDS011;8798;51.938;4.348;2024-03-02T13:55:28;3.00;;;0.97;;
17361;SDS011;8798;51.938;4.348;2024-03-02T13:57:56;2.03;;;0.57;;
17361;SDS011;8798;51.938;4.348;2024-03-02T14:00:24;2.83;;;0.80;;
17361;SDS011;8798;51.938;4.348;2024-03-02T14:02:53;4.33;;;0.80;;
17361;SDS011;8798;51.938;4.348;2024-03-02T14:05:21;5.83;;;0.90;;
17361;SDS011;8798;51.938;4.348;2024-03-02T14:07:49;4.87;;;0.97;;
17361;SDS011;8798;51.938;4.348;2024-03-02T14:10:17;2.27;;;0.70;;
17361;SDS011;8798;51.938;4.348;2024-03-02T14:12:50;4.07;;;0.80;;
17361;SDS011;8798;51.938;4.348;2024-03-02T14:15:18;4.73;;;0.83;;
17361;SDS011;8798;51.938;4.348;2024-03-02T14:17:47;1.80;;;0.60;;
17361;SDS011;8798;51.938;4.348;2024-03-02T14:20:15;4.77;;;0.90;;
17361;SDS011;8798;51.938;4.348;2024-03-02T14:22:48;2.23;;;0.70;;
17361;SDS011;8798;51.938;4.348;2024-03-02T14:25:17;1.83;;;0.90;;
17361;SDS011;8798;51.938;4.348;2024-03-02T14:27:45;1.43;;;0.70;;
17361;SDS011;8798;51.938;4.348;2024-03-02T14:30:35;1.93;;;0.73;;
17361;SDS011;8798;51.938;4.348;2024-03-02T14:33:04;3.00;;;0.90;;
17361;SDS011;8798;51.938;4.348;2024-03-02T14:35:32;1.10;;;0.60;;
17361;SDS011;8798;51.938;4.348;2024-03-02T14:38:00;3.73;;;0.67;;
17361;SDS011;8798;51.938;4.348;2024-03-02T14:40:29;2.20;;;1.30;;
17361;SDS011;8798;51.938;4.348;2024-03-02T14:42:57;3.97;;;0.80;;
17361;SDS011;8798;51.938;4.348;2024-03-02T14:45:25;2.03;;;0.50;;
17361;SDS011;8798;51.938;4.348;2024-03-02T14:47:55;2.13;;;0.70;;
17361;SDS011;8798;51.938;4.348;2024-03-02T14:50:26;9.10;;;1.30;;
17361;SDS011;8798;51.938;4.348;2024-03-02T14:52:54;1.53;;;0.60;;
17361;SDS011;8798;51.938;4.348;2024-03-02T14:55:24;2.43;;;0.73;;
17361;SDS011;8798;51.938;4.348;2024-03-02T14:57:53;2.30;;;0.80;;
17361;SDS011;8798;51.938;4.348;2024-03-02T15:00:21;4.80;;;0.60;;
17361;SDS011;8798;51.938;4.348;2024-03-02T15:02:50;2.80;;;0.90;;
17361;SDS011;8798;51.938;4.348;2024-03-02T15:05:20;3.60;;;0.80;;
17361;SDS011;8798;51.938;4.348;2024-03-02T15:07:48;1.70;;;0.60;;
17361;SDS011;8798;51.938;4.348;2024-03-02T15:10:17;3.10;;;1.00;;
17361;SDS011;8798;51.938;4.348;2024-03-02T15:12:45;1.90;;;0.80;;
17361;SDS011;8798;51.938;4.348;2024-03-02T15:15:14;1.87;;;0.70;;